Detroit Metropolitan Wayne County Airport


Codes: KDTW/DTW
Name: Detroit Metropolitan Wayne County Airport
City: Detroit
Country: United States
Elevation: 645 ft.
Website:
Wikipedia:

Photos at Detroit Metropolitan Wayne County Airport


   Photos courtesy of SpottingLog. You can add your own sightings and photos by signing up for a free trial today.



N8501F, 01-Nov-2010
© Deleted Account

N702DN, 01-Nov-2010
© Deleted Account

N577RP, 21-Oct-2010
© Deleted Account


Weather at Detroit Metropolitan Wayne County Airport


Time (UTC)DescriptionTempratureWindCloud coverageVisibilityPressureHumidity
13-Jun-2024 03:00Broken Clouds25°C9 mph, S83%10000m1011hPa55%
13-Jun-2024 06:00Overcast Clouds22°C9 mph, SW91%10000m1012hPa64%
13-Jun-2024 09:00Overcast Clouds19°C11 mph, SW100%10000m1011hPa80%
13-Jun-2024 12:00Light Rain20°C13 mph, SW100%10000m1012hPa84%
13-Jun-2024 15:00Overcast Clouds22°C11 mph, SW100%10000m1012hPa76%
13-Jun-2024 18:00Overcast Clouds27°C16 mph, SW87%10000m1011hPa52%
13-Jun-2024 21:00Scattered Clouds29°C16 mph, SW30%10000m1010hPa52%
14-Jun-2024 00:00Light Rain25°C11 mph, SW61%10000m1010hPa75%
14-Jun-2024 03:00Broken Clouds22°C7 mph, SW84%10000m1010hPa87%
14-Jun-2024 06:00Light Rain19°C7 mph, W52%10000m1010hPa96%
14-Jun-2024 09:00Broken Clouds19°C7 mph, NW84%10000m1011hPa94%
14-Jun-2024 12:00Light Rain18°C9 mph, N65%10000m1013hPa87%
14-Jun-2024 15:00Scattered Clouds23°C7 mph, N39%10000m1014hPa51%
14-Jun-2024 18:00Few Clouds25°C11 mph, NW19%10000m1014hPa41%
14-Jun-2024 21:00Clear Sky25°C13 mph, NW9%10000m1015hPa40%
15-Jun-2024 00:00Clear Sky22°C7 mph, N6%10000m1016hPa49%
15-Jun-2024 03:00Clear Sky18°C4 mph, E0%10000m1018hPa62%
15-Jun-2024 06:00Clear Sky16°C2 mph, SE0%10000m1019hPa62%
15-Jun-2024 09:00Few Clouds15°C2 mph, N23%10000m1020hPa58%
15-Jun-2024 12:00Broken Clouds17°C2 mph, SE58%10000m1021hPa55%
15-Jun-2024 15:00Scattered Clouds21°C4 mph, S45%10000m1021hPa46%
15-Jun-2024 18:00Broken Clouds24°C7 mph, SW58%10000m1020hPa42%
15-Jun-2024 21:00Overcast Clouds24°C9 mph, SE91%10000m1018hPa44%
16-Jun-2024 00:00Broken Clouds20°C7 mph, S80%10000m1019hPa58%
16-Jun-2024 03:00Overcast Clouds18°C4 mph, SE88%10000m1019hPa60%
16-Jun-2024 06:00Overcast Clouds18°C7 mph, SE92%10000m1018hPa59%
16-Jun-2024 09:00Overcast Clouds17°C7 mph, SE100%10000m1017hPa78%
16-Jun-2024 12:00Overcast Clouds19°C9 mph, S91%10000m1017hPa75%
16-Jun-2024 15:00Overcast Clouds23°C9 mph, S100%10000m1016hPa53%
16-Jun-2024 18:00Overcast Clouds27°C13 mph, S100%10000m1014hPa45%
16-Jun-2024 21:00Light Rain29°C11 mph, SW34%10000m1012hPa46%
17-Jun-2024 00:00Light Rain28°C9 mph, S56%10000m1012hPa64%
17-Jun-2024 03:00Few Clouds24°C7 mph, SW21%10000m1013hPa81%
17-Jun-2024 06:00Few Clouds23°C9 mph, SW15%10000m1013hPa88%
17-Jun-2024 09:00Few Clouds22°C7 mph, SW17%10000m1014hPa92%
17-Jun-2024 12:00Broken Clouds24°C7 mph, SW51%10000m1015hPa83%
17-Jun-2024 15:00Broken Clouds29°C11 mph, SW77%10000m1016hPa60%
17-Jun-2024 18:00Overcast Clouds32°C13 mph, SW89%10000m1015hPa50%
17-Jun-2024 21:00Broken Clouds33°C13 mph, SW65%10000m1015hPa46%
18-Jun-2024 00:00Scattered Clouds31°C7 mph, SW39%10000m1015hPa60%